Stratford, WA

9:11 AM PDT on October 02, 2014 (GMT -0700)
Ephrata Municipal | Change Station
CLOSE
Current Station
Airport
Location: Ephrata,
Elevation: 1273 ft
Nearby Weather Stations

Elev 1273 ft 47.31 °N, 119.52 °W | Updated 18 minutes ago

Clear
Clear
59 °F
Feels Like 59 °F
N
13
Wind Variable Wind from North

Today
High -- | Low -- °F
--% Chance of Precip.
Yesterday
High -- | Low -- °F
Precip. -- in
6:57 AM 6:34 PM
First Quarter, 60% visible
Pressure 30.24 in
Visibility 10.0 miles
Clouds Clear
Dew Point 32 °F
Humidity 36%
Rainfall 0.00 in
Snow Depth 0 in , 0 in , 0 in
UV 1 out of 12
Pollen 1.80 out of 12
Air Quality Not available.
Flu Activity Not available.
METAR KEPH 021553Z AUTO 35011KT 10SM CLR 15/00 A3024 RMK AO2 SLP240 T01500000

More Conditions Fewer Conditions

Pressure 30.24 in
Visibility 10.0 miles
Clouds Clear
Dew Point 32 °F
Humidity 36%
Rainfall 0.00 in
Snow Depth 0 in , 0 in , 0 in
UV 1 out of 12
Pollen 1.80 out of 12
Air Quality Not available.
Flu Activity Not available.
METAR KEPH 021553Z AUTO 35011KT 10SM CLR 15/00 A3024 RMK AO2 SLP240 T01500000

More Conditions Fewer Conditions

10-Day Weather Forecast

Almanac

Astronomy

Oct. 02, 2014 Rise Set
Actual Time 6:57 AM PDT 6:34 PM PDT
Civil Twilight 6:26 AM PDT 7:04 PM PDT
Nautical Twilight 5:51 AM PDT 7:40 PM PDT
Astronomical Twilight 5:15 AM PDT 8:16 PM PDT
Moon 3:05 PM PDT No Moon Set
Length of Visible Light 12h 37m
Length of Day
11h 36m
Tomorrow will be 3m 22s shorter.
First Quarter, 60% of the Moon is Illuminated
Today
First Quarter
Oct 8
Full
Oct 15
Last Quarter
Oct 23
New
Oct 30
First Quarter

Today's Extremes

State Highs State Lows

Community

WunderPhotos

Upload Photos

1,758,290 photos uploaded!

WunderBlogs® & News

Nearby

Snow Depth

Station Depth Elevation
Pope Ridge 0 in 3540 ft
Potato Hill 0 in 4500 ft
Wells Creek 0 in 4200 ft
Bunchgrass Meadow 0 in 5000 ft
White Pass E.S. 0 in 4500 ft

Earthquake Activity

City Distance Mag. Time & Date
No recent earthquake activity has been reported nearby.
Minimum magnitude displayed is 2.5.

Coastal Water Temperatures

Place Temperature
No Stations Reporting

Nearby Weather Stations